Aeroporto :
LOGIN :

Iscrizione | Disclaimer

   EN    FR    IT 

 










Sommario :    VFR   VFR Marginale   IFR   IFR Intensivo   IFR Molto Intensivo
Visibilità : 
Base nubi : 
>= 8 km
>= 3000ft
5 / 8 km
1000 / 3000 ft
1500m / 5 km
500 / 1000 ft
800 / 1500m
200 / 500 ft
< 800m
< 200 ft
Simboli :   Temporali  Nebbia  Neve Forte  Precipitazioni Forti  Vento > 20 kt
SIGMETs :   Varie  Temporali  Ghiacco  Turbolenza  Onda orograficha  Ceneri Vulcaniche






- Altitudine del aeroporto : 125 ft
- Codice IATA : MGL


EDLN - Mönchengladbach

ULTIMO METAR :
  • 291020Z 26014G26KT 210V300 9999 BKN020 05/01 Q1006

METARs OBSOLETI :
  • 290950Z 24014KT 210V300 9999 SCT019 BKN047 05/02 Q1006
  • 290920Z 24013G26KT 210V290 9999 SCT018 SCT025 05/02 Q1006
  • 290850Z 25014KT 210V290 9999 -SHRA BKN018 04/01 Q1006
  • 290820Z 24015KT 9999 SCT019 04/01 Q1006
  • 290750Z 23015KT 190V260 9999 FEW018 BKN048 04/01 Q1005
  • 290720Z 24009KT 210V270 9999 FEW018 BKN044 04/01 Q1005

TAF TAF EDLN
Valido dal 29 a 09 ore il 29 a 18 ore UTC


290800Z 2909/2918 25012KT 9999 BKN035
PROB30
TEMPO 2912/2915 26020G30KT SHRA BKN020CB
TEMPO 2913/2916 26015G25KT



MetMap, La meteo Aeronautica in un colpo d'occhio ! - Copyright ORBIFLY Dicembre 2007 - Disclaimer

ORBIFLY MET'MAP TEAM :

Programmazione e sviluppo : Alexandra Zaïnal
Concezione : Baudouin d'Aumeries
Aiuto per la programmazione : Marc-Olivier Méhu
Supporto tecnico e logistico : Manuel Goepfert
Aiuto per la traduzione : Arnaldo La Scala

Contatto : metmap@orbifly.com




FONTI E CREDITI :

   NOAA